createdAt,value
2023-01-04T00:00:05.599Z,98.98
2023-01-04T00:05:09.064Z,99.39
2023-01-04T00:10:12.158Z,100.00
2023-01-04T00:15:15.846Z,100.00
2023-01-04T00:20:19.133Z,100.00
2023-01-04T00:25:22.248Z,100.00
2023-01-04T00:30:25.757Z,100.00
2023-01-04T00:35:45.296Z,100.00
2023-01-04T00:40:50.037Z,100.00
2023-01-04T00:45:53.232Z,100.00
2023-01-04T00:50:57.684Z,100.00
2023-01-04T00:56:01.896Z,100.00
2023-01-04T01:01:09.547Z,100.00
2023-01-04T01:06:12.819Z,100.00
2023-01-04T01:11:16.417Z,100.00
2023-01-04T01:16:44.276Z,100.00
2023-01-04T01:21:46.527Z,100.00
2023-01-04T01:26:49.918Z,100.00
2023-01-04T01:31:53.777Z,100.00
2023-01-04T01:36:57.421Z,100.00
2023-01-04T01:42:00.967Z,100.00
2023-01-04T01:47:04.395Z,100.00
2023-01-04T01:52:15.363Z,100.00
2023-01-04T01:57:22.639Z,100.00
2023-01-04T02:02:25.626Z,100.00
2023-01-04T02:07:30.317Z,100.00
2023-01-04T02:12:34.306Z,100.00
2023-01-04T02:18:13.531Z,100.00
2023-01-04T02:23:44.991Z,100.00
2023-01-04T02:29:05.987Z,100.00
2023-01-04T02:34:25.559Z,100.00
2023-01-04T02:39:39.092Z,100.00
2023-01-04T02:44:59.061Z,100.00
2023-01-04T02:50:20.732Z,100.00
2023-01-04T02:55:29.817Z,100.00
2023-01-04T03:01:10.075Z,100.00
2023-01-04T03:06:33.260Z,100.00
2023-01-04T03:12:09.046Z,100.00
2023-01-04T03:17:15.680Z,100.00
2023-01-04T03:22:42.515Z,100.00
2023-01-04T03:28:08.787Z,100.00
2023-01-04T03:33:30.687Z,100.00
2023-01-04T03:39:03.548Z,100.00
2023-01-04T03:44:48.259Z,100.00
2023-01-04T03:50:03.087Z,100.00
2023-01-04T03:55:09.089Z,100.00
2023-01-04T04:00:17.650Z,100.00
2023-01-04T04:05:42.502Z,100.00
2023-01-04T04:10:45.640Z,100.00
2023-01-04T04:15:49.580Z,100.00
2023-01-04T04:20:58.675Z,100.00
2023-01-04T04:26:01.860Z,100.00
2023-01-04T04:31:05.189Z,100.00
2023-01-04T04:36:10.635Z,100.00
2023-01-04T04:41:34.134Z,100.00
2023-01-04T04:46:37.868Z,100.00
2023-01-04T04:51:42.396Z,100.00
2023-01-04T04:56:46.102Z,100.00
2023-01-04T05:01:50.052Z,100.00
2023-01-04T05:06:53.744Z,100.00
2023-01-04T05:12:15.879Z,100.00
2023-01-04T05:17:18.948Z,100.00
2023-01-04T05:22:22.151Z,100.00
2023-01-04T05:27:25.830Z,100.00
2023-01-04T05:32:29.844Z,100.00
2023-01-04T05:37:33.185Z,100.00
2023-01-04T05:42:37.668Z,100.00
2023-01-04T05:47:41.466Z,100.00
2023-01-04T05:52:45.252Z,100.00
2023-01-04T05:57:48.487Z,100.00
2023-01-04T06:02:53.092Z,100.00
2023-01-04T06:07:56.315Z,100.00
2023-01-04T06:12:59.610Z,100.00
2023-01-04T06:18:06.381Z,100.00
2023-01-04T06:23:12.232Z,100.00
2023-01-04T06:28:15.429Z,100.00
2023-01-04T06:33:18.655Z,100.00
2023-01-04T06:38:22.312Z,100.00
2023-01-04T06:43:25.581Z,100.00
2023-01-04T06:48:28.675Z,100.00
2023-01-04T06:53:32.102Z,100.00
2023-01-04T06:58:36.901Z,100.00
2023-01-04T07:03:43.259Z,100.00
2023-01-04T07:08:46.773Z,100.00
2023-01-04T07:13:50.078Z,100.00
2023-01-04T07:18:53.255Z,100.00
2023-01-04T07:23:56.695Z,76.25
2023-01-04T07:29:15.931Z,54.16
2023-01-04T07:34:21.917Z,52.74
2023-01-04T07:39:25.124Z,50.34
2023-01-04T07:44:28.600Z,50.72
2023-01-04T07:49:31.875Z,47.50
2023-01-04T07:54:36.015Z,42.54
2023-01-04T07:59:39.573Z,43.07
2023-01-04T08:04:42.806Z,42.75
2023-01-04T08:09:46.039Z,42.32
2023-01-04T08:14:49.958Z,42.70
2023-01-04T08:19:53.168Z,42.05
2023-01-04T08:24:57.227Z,41.48
2023-01-04T08:30:00.448Z,41.13
2023-01-04T08:35:03.801Z,39.51
2023-01-04T08:40:08.358Z,40.28
2023-01-04T08:45:12.065Z,39.79
2023-01-04T08:50:17.186Z,38.75
2023-01-04T08:55:23.432Z,39.03
2023-01-04T09:00:27.472Z,40.50
2023-01-04T09:05:33.619Z,39.20
2023-01-04T09:10:39.336Z,39.82
2023-01-04T09:15:43.028Z,38.38
2023-01-04T09:20:46.381Z,39.24
2023-01-04T09:25:50.574Z,41.68
2023-01-04T09:30:53.736Z,39.71
2023-01-04T09:36:02.481Z,43.77
2023-01-04T09:41:39.739Z,41.47
2023-01-04T09:47:01.855Z,41.00
2023-01-04T09:52:13.633Z,38.65
2023-01-04T09:57:25.162Z,39.62
2023-01-04T10:02:48.173Z,38.87
2023-01-04T10:07:52.675Z,38.27
2023-01-04T10:13:32.119Z,38.52
2023-01-04T10:19:50.990Z,40.44
2023-01-04T10:24:32.135Z,39.55
2023-01-04T10:30:06.029Z,40.01
2023-01-04T10:35:25.490Z,39.41
2023-01-04T10:40:32.254Z,40.65
2023-01-04T10:45:41.602Z,41.03
2023-01-04T10:51:05.166Z,43.18
2023-01-04T10:56:27.169Z,44.15
2023-01-04T11:01:46.831Z,46.14
2023-01-04T11:06:56.630Z,47.66
2023-01-04T11:12:02.796Z,50.63
2023-01-04T11:17:10.550Z,48.78
2023-01-04T11:22:42.013Z,50.06
2023-01-04T11:27:56.627Z,50.41
2023-01-04T11:33:21.752Z,50.05
2023-01-04T11:38:30.058Z,50.09
2023-01-04T11:43:36.267Z,50.14
2023-01-04T11:48:45.431Z,49.15
2023-01-04T11:54:20.072Z,49.16
2023-01-04T11:59:25.756Z,48.90
2023-01-04T12:04:35.205Z,47.11
2023-01-04T12:09:38.663Z,48.33
2023-01-04T12:14:49.844Z,47.63
2023-01-04T12:19:56.547Z,47.67
2023-01-04T12:25:01.395Z,46.74
2023-01-04T12:30:10.569Z,47.02
2023-01-04T12:35:52.016Z,45.65
2023-01-04T12:40:56.803Z,44.76
2023-01-04T12:46:50.010Z,45.34
2023-01-04T12:52:43.064Z,44.04
2023-01-04T12:57:48.369Z,43.88
2023-01-04T13:03:18.305Z,43.11
2023-01-04T13:08:21.927Z,40.39
2023-01-04T13:13:48.483Z,41.97
2023-01-04T13:19:01.230Z,43.03
2023-01-04T13:24:27.520Z,43.50
2023-01-04T13:29:32.187Z,41.46
2023-01-04T13:34:41.680Z,42.03
2023-01-04T13:40:07.269Z,44.81
2023-01-04T13:45:35.285Z,42.11
2023-01-04T13:50:47.584Z,43.62
2023-01-04T13:55:56.495Z,43.85
2023-01-04T14:01:26.674Z,46.15
2023-01-04T14:06:33.213Z,46.82
2023-01-04T14:12:06.186Z,47.14
2023-01-04T14:17:29.523Z,46.98
2023-01-04T14:22:37.920Z,47.20
2023-01-04T14:27:43.240Z,49.06
2023-01-04T14:33:00.551Z,53.48
2023-01-04T14:38:07.694Z,56.43
2023-01-04T14:43:35.067Z,59.55
2023-01-04T14:48:38.936Z,62.16
2023-01-04T14:53:43.364Z,63.62
2023-01-04T14:58:47.010Z,66.47
2023-01-04T15:03:50.541Z,69.29
2023-01-04T15:08:53.927Z,71.16
2023-01-04T15:13:57.063Z,72.39
2023-01-04T15:19:01.540Z,73.63
2023-01-04T15:24:05.432Z,74.75
2023-01-04T15:29:08.894Z,76.43
2023-01-04T15:34:14.457Z,78.52
2023-01-04T15:39:18.015Z,79.63
2023-01-04T15:44:21.566Z,79.84
2023-01-04T15:49:25.043Z,80.12
2023-01-04T15:54:29.820Z,81.02
2023-01-04T15:59:33.044Z,81.74
2023-01-04T16:04:36.205Z,82.12
2023-01-04T16:09:40.796Z,82.99
2023-01-04T16:14:45.079Z,84.19
2023-01-04T16:19:49.352Z,85.39
2023-01-04T16:25:22.455Z,86.48
2023-01-04T16:30:15.788Z,88.10
2023-01-04T16:35:19.056Z,89.35
2023-01-04T16:40:22.478Z,90.10
2023-01-04T16:45:25.532Z,91.34
2023-01-04T16:50:29.126Z,92.38
2023-01-04T16:55:35.070Z,93.34
2023-01-04T17:00:39.881Z,94.29
2023-01-04T17:05:43.282Z,94.32
2023-01-04T17:10:47.250Z,94.80
2023-01-04T17:15:50.330Z,95.70
2023-01-04T17:21:01.798Z,96.14
2023-01-04T17:26:17.880Z,96.62
2023-01-04T17:31:28.029Z,96.90
2023-01-04T17:36:31.635Z,97.26
2023-01-04T17:41:36.161Z,96.53
2023-01-04T17:46:39.510Z,97.20
2023-01-04T17:51:43.042Z,97.57
2023-01-04T17:56:47.165Z,97.74
2023-01-04T18:01:50.638Z,97.37
2023-01-04T18:06:53.882Z,97.45
2023-01-04T18:11:57.043Z,97.59
2023-01-04T18:17:00.284Z,97.42
2023-01-04T18:22:05.082Z,97.03
2023-01-04T18:27:21.451Z,96.94
2023-01-04T18:32:27.306Z,97.41
2023-01-04T18:37:31.678Z,97.67
2023-01-04T18:42:34.744Z,98.22
2023-01-04T18:47:38.347Z,98.52
2023-01-04T18:52:42.095Z,98.59
2023-01-04T18:57:45.277Z,97.92
2023-01-04T19:02:49.641Z,97.68
2023-01-04T19:07:53.208Z,96.92
2023-01-04T19:12:56.380Z,96.84
2023-01-04T19:18:00.126Z,96.69
2023-01-04T19:23:03.667Z,96.48
2023-01-04T19:28:07.681Z,96.26
2023-01-04T19:33:12.102Z,96.15
2023-01-04T19:38:15.876Z,96.05
2023-01-04T19:43:19.410Z,95.59
2023-01-04T19:48:24.317Z,94.71
2023-01-04T19:53:27.902Z,94.32
2023-01-04T19:58:32.128Z,94.04
2023-01-04T20:03:35.540Z,93.68
2023-01-04T20:08:39.791Z,93.42
2023-01-04T20:13:43.020Z,93.67
2023-01-04T20:18:46.317Z,93.68
2023-01-04T20:23:50.066Z,94.43
2023-01-04T20:28:53.715Z,95.12
2023-01-04T20:33:57.846Z,95.00
2023-01-04T20:39:03.194Z,95.31
2023-01-04T20:44:06.312Z,95.03
2023-01-04T20:49:10.258Z,94.72
2023-01-04T20:54:14.311Z,95.16
2023-01-04T20:59:18.189Z,95.58
2023-01-04T21:04:21.746Z,96.13
2023-01-04T21:09:25.791Z,96.72
2023-01-04T21:14:31.709Z,97.13
2023-01-04T21:19:34.884Z,97.81
2023-01-04T21:24:38.303Z,97.62
2023-01-04T21:29:41.450Z,98.26
2023-01-04T21:34:44.531Z,97.87
2023-01-04T21:39:48.049Z,98.22
2023-01-04T21:44:51.138Z,97.97
2023-01-04T21:49:54.578Z,97.67
2023-01-04T21:54:58.724Z,97.66
2023-01-04T22:00:05.048Z,98.61
2023-01-04T22:05:08.818Z,98.42
2023-01-04T22:10:12.374Z,98.70
2023-01-04T22:15:15.578Z,99.53
2023-01-04T22:20:19.232Z,99.40
2023-01-04T22:25:22.548Z,99.55
2023-01-04T22:30:26.123Z,99.82
2023-01-04T22:35:29.563Z,100.00
2023-01-04T22:40:33.531Z,100.00
2023-01-04T22:45:37.135Z,100.00
2023-01-04T22:50:40.185Z,100.00
2023-01-04T22:56:17.537Z,100.00
2023-01-04T23:01:09.238Z,100.00
2023-01-04T23:06:13.918Z,100.00
2023-01-04T23:11:19.098Z,100.00
2023-01-04T23:16:27.915Z,100.00
2023-01-04T23:21:36.771Z,100.00
2023-01-04T23:26:40.368Z,100.00
2023-01-04T23:31:43.934Z,100.00
2023-01-04T23:36:47.215Z,100.00
2023-01-04T23:41:51.960Z,100.00
2023-01-04T23:47:01.327Z,100.00
2023-01-04T23:52:06.005Z,100.00
2023-01-04T23:57:09.301Z,100.00
